sensor_id;sensor_type;location;lat;lon;timestamp;pressure;altitude;pressure_sealevel;temperature;humidity
40155;BME280;25875;48.202;16.334;2023-10-31T00:01:31;97552.94;;;14.19;75.09
40155;BME280;25875;48.202;16.334;2023-10-31T00:03:58;97567.09;;;14.19;75.25
40155;BME280;25875;48.202;16.334;2023-10-31T00:06:26;97566.94;;;14.21;75.42
40155;BME280;25875;48.202;16.334;2023-10-31T00:08:53;97555.44;;;14.20;74.49
40155;BME280;25875;48.202;16.334;2023-10-31T00:11:20;97565.94;;;14.22;74.83
40155;BME280;25875;48.202;16.334;2023-10-31T00:13:47;97514.44;;;13.86;74.70
40155;BME280;25875;48.202;16.334;2023-10-31T00:16:14;97557.41;;;14.18;74.53
40155;BME280;25875;48.202;16.334;2023-10-31T00:18:40;97551.41;;;14.16;75.26
40155;BME280;25875;48.202;16.334;2023-10-31T00:21:07;97536.09;;;14.18;74.98
40155;BME280;25875;48.202;16.334;2023-10-31T00:23:42;97510.03;;;13.94;74.19
40155;BME280;25875;48.202;16.334;2023-10-31T00:26:09;97540.34;;;14.11;74.52
40155;BME280;25875;48.202;16.334;2023-10-31T00:28:36;97487.13;;;13.84;74.43
40155;BME280;25875;48.202;16.334;2023-10-31T00:31:04;97519.03;;;14.11;73.90
40155;BME280;25875;48.202;16.334;2023-10-31T00:33:32;97471.00;;;13.85;74.32
40155;BME280;25875;48.202;16.334;2023-10-31T00:35:59;97424.03;;;13.48;73.90
40155;BME280;25875;48.202;16.334;2023-10-31T00:38:26;97505.25;;;13.98;73.92
40155;BME280;25875;48.202;16.334;2023-10-31T00:40:54;97525.22;;;14.11;73.76
40155;BME280;25875;48.202;16.334;2023-10-31T00:43:20;97518.59;;;14.16;74.52
40155;BME280;25875;48.202;16.334;2023-10-31T00:45:47;97515.09;;;14.15;74.03
40155;BME280;25875;48.202;16.334;2023-10-31T00:48:14;97520.03;;;14.10;73.86
40155;BME280;25875;48.202;16.334;2023-10-31T00:50:40;97503.75;;;14.13;74.18
40155;BME280;25875;48.202;16.334;2023-10-31T00:53:07;97510.22;;;14.10;73.38
40155;BME280;25875;48.202;16.334;2023-10-31T00:55:34;97514.56;;;14.11;74.24
40155;BME280;25875;48.202;16.334;2023-10-31T00:58:02;97527.03;;;14.11;73.88
40155;BME280;25875;48.202;16.334;2023-10-31T01:00:29;97523.38;;;14.12;74.16
40155;BME280;25875;48.202;16.334;2023-10-31T01:02:57;97513.72;;;14.11;73.48
40155;BME280;25875;48.202;16.334;2023-10-31T01:05:24;97523.53;;;14.10;73.40
40155;BME280;25875;48.202;16.334;2023-10-31T01:07:52;97295.66;;;12.74;73.29
40155;BME280;25875;48.202;16.334;2023-10-31T01:10:18;97515.84;;;14.07;73.70
40155;BME280;25875;48.202;16.334;2023-10-31T01:12:45;97506.63;;;14.02;73.08
40155;BME280;25875;48.202;16.334;2023-10-31T01:15:13;97450.00;;;13.82;73.15
40155;BME280;25875;48.202;16.334;2023-10-31T01:17:40;97479.16;;;14.01;73.67
40155;BME280;25875;48.202;16.334;2023-10-31T01:20:08;97444.84;;;13.80;72.87
40155;BME280;25875;48.202;16.334;2023-10-31T01:22:35;97468.50;;;14.01;72.53
40155;BME280;25875;48.202;16.334;2023-10-31T01:25:02;97460.66;;;14.00;72.91
40155;BME280;25875;48.202;16.334;2023-10-31T01:27:29;97433.19;;;13.82;72.67
40155;BME280;25875;48.202;16.334;2023-10-31T01:29:55;97454.34;;;14.01;72.83
40155;BME280;25875;48.202;16.334;2023-10-31T01:32:23;97441.34;;;13.98;72.50
40155;BME280;25875;48.202;16.334;2023-10-31T01:34:50;97438.53;;;13.99;72.79
40155;BME280;25875;48.202;16.334;2023-10-31T01:37:17;97419.19;;;13.97;72.66
40155;BME280;25875;48.202;16.334;2023-10-31T01:39:44;97407.41;;;14.00;72.44
40155;BME280;25875;48.202;16.334;2023-10-31T01:42:13;97402.22;;;13.98;72.12
40155;BME280;25875;48.202;16.334;2023-10-31T01:44:40;97401.41;;;13.98;71.98
40155;BME280;25875;48.202;16.334;2023-10-31T01:47:07;97397.75;;;13.99;71.58
40155;BME280;25875;48.202;16.334;2023-10-31T01:49:35;97361.53;;;13.70;71.48
40155;BME280;25875;48.202;16.334;2023-10-31T01:52:03;97403.59;;;14.02;71.73
40155;BME280;25875;48.202;16.334;2023-10-31T01:54:30;97414.41;;;14.01;72.05
40155;BME280;25875;48.202;16.334;2023-10-31T01:56:57;97383.44;;;14.00;72.42
40155;BME280;25875;48.202;16.334;2023-10-31T01:59:24;97388.75;;;14.00;72.08
40155;BME280;25875;48.202;16.334;2023-10-31T02:01:51;97359.03;;;13.87;72.24
40155;BME280;25875;48.202;16.334;2023-10-31T02:04:18;97366.63;;;13.99;72.28
40155;BME280;25875;48.202;16.334;2023-10-31T02:06:46;97375.59;;;13.98;71.89
40155;BME280;25875;48.202;16.334;2023-10-31T02:09:13;97368.44;;;13.99;71.91
40155;BME280;25875;48.202;16.334;2023-10-31T02:11:39;97373.09;;;13.97;71.27
40155;BME280;25875;48.202;16.334;2023-10-31T02:14:06;97358.78;;;13.98;72.16
40155;BME280;25875;48.202;16.334;2023-10-31T02:16:33;97362.28;;;13.98;72.02
40155;BME280;25875;48.202;16.334;2023-10-31T02:18:59;97360.47;;;13.99;72.67
40155;BME280;25875;48.202;16.334;2023-10-31T02:21:27;97356.28;;;13.96;72.52
40155;BME280;25875;48.202;16.334;2023-10-31T02:23:59;97347.13;;;13.99;72.36
40155;BME280;25875;48.202;16.334;2023-10-31T02:26:28;97342.13;;;13.96;72.25
40155;BME280;25875;48.202;16.334;2023-10-31T02:28:55;97327.97;;;13.95;72.03
40155;BME280;25875;48.202;16.334;2023-10-31T02:31:22;97337.63;;;13.96;71.90
40155;BME280;25875;48.202;16.334;2023-10-31T02:33:49;97328.38;;;13.83;72.31
40155;BME280;25875;48.202;16.334;2023-10-31T02:36:15;97351.63;;;13.98;71.74
40155;BME280;25875;48.202;16.334;2023-10-31T02:38:42;97340.66;;;14.01;72.29
40155;BME280;25875;48.202;16.334;2023-10-31T02:41:10;97350.47;;;14.01;72.07
40155;BME280;25875;48.202;16.334;2023-10-31T02:43:37;97351.47;;;14.00;72.04
40155;BME280;25875;48.202;16.334;2023-10-31T02:46:04;97350.78;;;13.98;71.91
40155;BME280;25875;48.202;16.334;2023-10-31T02:48:31;97352.47;;;13.99;72.06
40155;BME280;25875;48.202;16.334;2023-10-31T02:51:03;97234.31;;;13.21;71.44
40155;BME280;25875;48.202;16.334;2023-10-31T02:53:30;97320.41;;;13.65;71.61
40155;BME280;25875;48.202;16.334;2023-10-31T02:55:57;97376.28;;;14.00;71.54
40155;BME280;25875;48.202;16.334;2023-10-31T02:58:25;97358.47;;;14.01;71.67
40155;BME280;25875;48.202;16.334;2023-10-31T03:00:52;97324.13;;;13.72;71.60
40155;BME280;25875;48.202;16.334;2023-10-31T03:03:19;97379.94;;;13.99;71.98
40155;BME280;25875;48.202;16.334;2023-10-31T03:05:45;97386.94;;;14.00;72.50
40155;BME280;25875;48.202;16.334;2023-10-31T03:08:12;97417.06;;;14.01;72.42
40155;BME280;25875;48.202;16.334;2023-10-31T03:10:39;97432.06;;;14.02;72.72
40155;BME280;25875;48.202;16.334;2023-10-31T03:13:05;97413.41;;;14.02;72.11
40155;BME280;25875;48.202;16.334;2023-10-31T03:15:34;97373.63;;;13.83;71.77
40155;BME280;25875;48.202;16.334;2023-10-31T03:18:00;97423.22;;;14.01;71.84
40155;BME280;25875;48.202;16.334;2023-10-31T03:20:27;97414.25;;;14.02;71.63
40155;BME280;25875;48.202;16.334;2023-10-31T03:22:54;97442.41;;;14.05;72.43
40155;BME280;25875;48.202;16.334;2023-10-31T03:25:21;97459.69;;;14.01;72.88
40155;BME280;25875;48.202;16.334;2023-10-31T03:27:48;97461.34;;;14.02;72.77
40155;BME280;25875;48.202;16.334;2023-10-31T03:30:14;97448.50;;;13.97;72.89
40155;BME280;25875;48.202;16.334;2023-10-31T03:32:43;97444.16;;;13.96;73.06
40155;BME280;25875;48.202;16.334;2023-10-31T03:35:09;97441.25;;;13.90;73.24
40155;BME280;25875;48.202;16.334;2023-10-31T03:37:35;97402.84;;;13.74;72.86
40155;BME280;25875;48.202;16.334;2023-10-31T03:40:07;97439.97;;;13.94;72.97
40155;BME280;25875;48.202;16.334;2023-10-31T03:42:34;97450.16;;;13.98;73.54
40155;BME280;25875;48.202;16.334;2023-10-31T03:45:01;97460.44;;;13.93;73.03
40155;BME280;25875;48.202;16.334;2023-10-31T03:47:28;97466.75;;;13.92;73.20
40155;BME280;25875;48.202;16.334;2023-10-31T03:49:56;97467.75;;;13.91;73.32
40155;BME280;25875;48.202;16.334;2023-10-31T03:52:23;97435.09;;;13.71;73.45
40155;BME280;25875;48.202;16.334;2023-10-31T03:54:50;97463.56;;;13.89;73.19
40155;BME280;25875;48.202;16.334;2023-10-31T03:57:16;97476.34;;;13.85;73.47
40155;BME280;25875;48.202;16.334;2023-10-31T03:59:43;97488.13;;;13.83;73.17
40155;BME280;25875;48.202;16.334;2023-10-31T04:02:10;97488.13;;;13.83;73.05
40155;BME280;25875;48.202;16.334;2023-10-31T04:04:37;97464.81;;;13.67;73.50
40155;BME280;25875;48.202;16.334;2023-10-31T04:07:05;97507.06;;;13.79;72.87
40155;BME280;25875;48.202;16.334;2023-10-31T04:09:32;97516.88;;;13.79;73.17
40155;BME280;25875;48.202;16.334;2023-10-31T04:11:59;97511.53;;;13.79;73.01
40155;BME280;25875;48.202;16.334;2023-10-31T04:14:25;97515.19;;;13.78;73.30
40155;BME280;25875;48.202;16.334;2023-10-31T04:16:52;97516.19;;;13.77;73.51
40155;BME280;25875;48.202;16.334;2023-10-31T04:19:19;97520.97;;;13.73;73.39
40155;BME280;25875;48.202;16.334;2023-10-31T04:21:45;97517.47;;;13.73;73.25
40155;BME280;25875;48.202;16.334;2023-10-31T04:24:13;97535.56;;;13.69;73.57
40155;BME280;25875;48.202;16.334;2023-10-31T04:26:40;97535.56;;;13.69;73.63
40155;BME280;25875;48.202;16.334;2023-10-31T04:29:07;97536.94;;;13.73;73.73
40155;BME280;25875;48.202;16.334;2023-10-31T04:31:34;97542.72;;;13.69;73.64
40155;BME280;25875;48.202;16.334;2023-10-31T04:34:00;97549.16;;;13.66;73.73
40155;BME280;25875;48.202;16.334;2023-10-31T04:36:27;97563.31;;;13.67;73.25
40155;BME280;25875;48.202;16.334;2023-10-31T04:38:54;97516.03;;;13.51;73.92
40155;BME280;25875;48.202;16.334;2023-10-31T04:41:22;97546.81;;;13.63;73.90
40155;BME280;25875;48.202;16.334;2023-10-31T04:43:49;97544.28;;;13.62;73.70
40155;BME280;25875;48.202;16.334;2023-10-31T04:46:15;97548.78;;;13.61;73.69
40155;BME280;25875;48.202;16.334;2023-10-31T04:48:42;97548.22;;;13.58;73.96
40155;BME280;25875;48.202;16.334;2023-10-31T04:51:09;97544.44;;;13.60;73.88
40155;BME280;25875;48.202;16.334;2023-10-31T04:53:35;97552.72;;;13.57;73.73
40155;BME280;25875;48.202;16.334;2023-10-31T04:56:02;97562.38;;;13.58;73.68
40155;BME280;25875;48.202;16.334;2023-10-31T04:58:31;97568.81;;;13.56;73.77
40155;BME280;25875;48.202;16.334;2023-10-31T05:00:57;97568.00;;;13.55;73.82
40155;BME280;25875;48.202;16.334;2023-10-31T05:03:25;97555.38;;;13.57;73.67
40155;BME280;25875;48.202;16.334;2023-10-31T05:05:51;97571.50;;;13.56;74.01
40155;BME280;25875;48.202;16.334;2023-10-31T05:08:18;97562.53;;;13.57;73.80
40155;BME280;25875;48.202;16.334;2023-10-31T05:10:45;97545.16;;;13.53;73.49
40155;BME280;25875;48.202;16.334;2023-10-31T05:13:12;97575.44;;;13.52;73.96
40155;BME280;25875;48.202;16.334;2023-10-31T05:15:41;97578.09;;;13.52;73.86
40155;BME280;25875;48.202;16.334;2023-10-31T05:18:08;97554.91;;;13.25;74.17
40155;BME280;25875;48.202;16.334;2023-10-31T05:20:35;97605.00;;;13.48;74.24
40155;BME280;25875;48.202;16.334;2023-10-31T05:23:01;97584.97;;;13.44;74.22
40155;BME280;25875;48.202;16.334;2023-10-31T05:25:28;97614.41;;;13.43;74.06
40155;BME280;25875;48.202;16.334;2023-10-31T05:27:55;97617.06;;;13.43;74.36
40155;BME280;25875;48.202;16.334;2023-10-31T05:30:21;97618.72;;;13.44;74.21
40155;BME280;25875;48.202;16.334;2023-10-31T05:32:50;97622.22;;;13.44;74.38
40155;BME280;25875;48.202;16.334;2023-10-31T05:35:17;97606.44;;;13.24;74.36
40155;BME280;25875;48.202;16.334;2023-10-31T05:37:45;97524.94;;;12.76;74.35
40155;BME280;25875;48.202;16.334;2023-10-31T05:40:13;97631.88;;;13.36;74.17
40155;BME280;25875;48.202;16.334;2023-10-31T05:42:39;97635.53;;;13.35;73.97
40155;BME280;25875;48.202;16.334;2023-10-31T05:45:06;97644.78;;;13.31;73.64
40155;BME280;25875;48.202;16.334;2023-10-31T05:47:33;97648.56;;;13.28;73.50
40155;BME280;25875;48.202;16.334;2023-10-31T05:50:01;97645.06;;;13.28;73.70
40155;BME280;25875;48.202;16.334;2023-10-31T05:52:28;97652.50;;;13.24;72.66
40155;BME280;25875;48.202;16.334;2023-10-31T05:54:55;97651.50;;;13.25;73.05
40155;BME280;25875;48.202;16.334;2023-10-31T05:57:22;97657.41;;;13.19;72.26
40155;BME280;25875;48.202;16.334;2023-10-31T05:59:49;97658.09;;;13.21;72.51
40155;BME280;25875;48.202;16.334;2023-10-31T06:02:16;97666.66;;;13.15;72.46
40155;BME280;25875;48.202;16.334;2023-10-31T06:04:42;97677.56;;;13.12;71.46
40155;BME280;25875;48.202;16.334;2023-10-31T06:07:11;97689.03;;;13.12;72.59
40155;BME280;25875;48.202;16.334;2023-10-31T06:09:38;97689.88;;;13.13;72.57
40155;BME280;25875;48.202;16.334;2023-10-31T06:12:05;97692.81;;;13.10;72.25
40155;BME280;25875;48.202;16.334;2023-10-31T06:14:32;97706.25;;;13.08;72.05
40155;BME280;25875;48.202;16.334;2023-10-31T06:16:58;97705.13;;;13.11;72.16
40155;BME280;25875;48.202;16.334;2023-10-31T06:19:26;97613.63;;;12.46;72.98
40155;BME280;25875;48.202;16.334;2023-10-31T06:21:53;97722.06;;;13.10;72.79
40155;BME280;25875;48.202;16.334;2023-10-31T06:24:21;97715.91;;;13.09;72.75
40155;BME280;25875;48.202;16.334;2023-10-31T06:26:48;97721.25;;;13.09;72.65
40155;BME280;25875;48.202;16.334;2023-10-31T06:29:14;97713.13;;;13.11;72.98
40155;BME280;25875;48.202;16.334;2023-10-31T06:31:41;97731.03;;;13.09;72.83
40155;BME280;25875;48.202;16.334;2023-10-31T06:34:08;97753.72;;;13.03;72.87
40155;BME280;25875;48.202;16.334;2023-10-31T06:36:35;97759.88;;;13.04;72.81
40155;BME280;25875;48.202;16.334;2023-10-31T06:39:02;97748.66;;;13.00;72.30
40155;BME280;25875;48.202;16.334;2023-10-31T06:41:30;97767.28;;;13.00;72.68
40155;BME280;25875;48.202;16.334;2023-10-31T06:43:57;97748.38;;;12.94;72.40
40155;BME280;25875;48.202;16.334;2023-10-31T06:46:23;97765.19;;;12.94;72.05
40155;BME280;25875;48.202;16.334;2023-10-31T06:48:51;97752.03;;;12.93;71.93
40155;BME280;25875;48.202;16.334;2023-10-31T06:51:17;97759.84;;;12.94;71.75
40155;BME280;25875;48.202;16.334;2023-10-31T06:53:44;97759.44;;;12.89;72.04
40155;BME280;25875;48.202;16.334;2023-10-31T06:56:11;97745.72;;;12.84;72.21
40155;BME280;25875;48.202;16.334;2023-10-31T06:58:39;97741.81;;;12.88;71.56
40155;BME280;25875;48.202;16.334;2023-10-31T07:01:05;97742.22;;;12.83;72.06
40155;BME280;25875;48.202;16.334;2023-10-31T07:03:32;97730.03;;;12.81;71.73
40155;BME280;25875;48.202;16.334;2023-10-31T07:05:59;97717.72;;;12.80;71.45
40155;BME280;25875;48.202;16.334;2023-10-31T07:08:25;97731.00;;;12.80;71.85
40155;BME280;25875;48.202;16.334;2023-10-31T07:10:52;97730.03;;;12.81;71.71
40155;BME280;25875;48.202;16.334;2023-10-31T07:13:19;97724.16;;;12.77;71.75
40155;BME280;25875;48.202;16.334;2023-10-31T07:15:47;97730.84;;;12.72;71.64
40155;BME280;25875;48.202;16.334;2023-10-31T07:18:13;97733.38;;;12.73;71.37
40155;BME280;25875;48.202;16.334;2023-10-31T07:20:41;97747.91;;;12.69;71.19
40155;BME280;25875;48.202;16.334;2023-10-31T07:23:08;97755.19;;;12.67;71.21
40155;BME280;25875;48.202;16.334;2023-10-31T07:25:35;97757.41;;;12.62;70.44
40155;BME280;25875;48.202;16.334;2023-10-31T07:28:01;97755.47;;;12.64;71.39
40155;BME280;25875;48.202;16.334;2023-10-31T07:30:28;97771.41;;;12.64;71.08
40155;BME280;25875;48.202;16.334;2023-10-31T07:32:56;97768.19;;;12.61;70.85
40155;BME280;25875;48.202;16.334;2023-10-31T07:35:23;97762.72;;;12.62;71.16
40155;BME280;25875;48.202;16.334;2023-10-31T07:37:50;97793.91;;;12.60;70.71
40155;BME280;25875;48.202;16.334;2023-10-31T07:40:16;97804.41;;;12.62;71.29
40155;BME280;25875;48.202;16.334;2023-10-31T07:42:43;97756.66;;;12.41;70.87
40155;BME280;25875;48.202;16.334;2023-10-31T07:45:10;97770.38;;;12.46;70.92
40155;BME280;25875;48.202;16.334;2023-10-31T07:47:37;97806.38;;;12.60;70.87
40155;BME280;25875;48.202;16.334;2023-10-31T07:50:05;97794.31;;;12.56;70.91
40155;BME280;25875;48.202;16.334;2023-10-31T07:52:32;97779.50;;;12.53;70.87
40155;BME280;25875;48.202;16.334;2023-10-31T07:54:59;97798.50;;;12.48;70.71
40155;BME280;25875;48.202;16.334;2023-10-31T07:57:25;97778.06;;;12.49;70.84
40155;BME280;25875;48.202;16.334;2023-10-31T07:59:52;97800.44;;;12.46;70.61
40155;BME280;25875;48.202;16.334;2023-10-31T08:02:19;97796.81;;;12.47;70.46
40155;BME280;25875;48.202;16.334;2023-10-31T08:04:46;97800.31;;;12.48;70.73
40155;BME280;25875;48.202;16.334;2023-10-31T08:07:14;97786.31;;;12.46;70.57
40155;BME280;25875;48.202;16.334;2023-10-31T08:09:40;97804.78;;;12.47;70.22
40155;BME280;25875;48.202;16.334;2023-10-31T08:12:07;97778.22;;;12.47;70.10
40155;BME280;25875;48.202;16.334;2023-10-31T08:14:35;97770.09;;;12.49;70.32
40155;BME280;25875;48.202;16.334;2023-10-31T08:17:02;97728.06;;;12.24;70.12
40155;BME280;25875;48.202;16.334;2023-10-31T08:19:29;97761.56;;;12.45;69.85
40155;BME280;25875;48.202;16.334;2023-10-31T08:21:55;97778.22;;;12.47;69.56
40155;BME280;25875;48.202;16.334;2023-10-31T08:24:23;97764.22;;;12.45;69.75
40155;BME280;25875;48.202;16.334;2023-10-31T08:26:50;97768.81;;;12.43;69.80
40155;BME280;25875;48.202;16.334;2023-10-31T08:29:17;97765.91;;;12.46;68.89
40155;BME280;25875;48.202;16.334;2023-10-31T08:31:43;97763.38;;;12.45;69.28
40155;BME280;25875;48.202;16.334;2023-10-31T08:34:10;97766.56;;;12.39;68.94
40155;BME280;25875;48.202;16.334;2023-10-31T08:36:37;97804.47;;;12.41;69.00
40155;BME280;25875;48.202;16.334;2023-10-31T08:39:04;97785.41;;;12.26;69.01
40155;BME280;25875;48.202;16.334;2023-10-31T08:41:32;97829.94;;;12.43;68.90
40155;BME280;25875;48.202;16.334;2023-10-31T08:43:59;97764.59;;;12.10;68.38
40155;BME280;25875;48.202;16.334;2023-10-31T08:46:26;97825.59;;;12.42;68.86
40155;BME280;25875;48.202;16.334;2023-10-31T08:48:53;97820.16;;;12.44;69.03
40155;BME280;25875;48.202;16.334;2023-10-31T08:51:20;97824.91;;;12.40;68.30
40155;BME280;25875;48.202;16.334;2023-10-31T08:53:48;97748.22;;;12.05;67.55
40155;BME280;25875;48.202;16.334;2023-10-31T08:56:15;97807.28;;;12.39;68.24
40155;BME280;25875;48.202;16.334;2023-10-31T08:58:43;97781.91;;;12.26;68.17
40155;BME280;25875;48.202;16.334;2023-10-31T09:01:10;97801.38;;;12.36;67.42
40155;BME280;25875;48.202;16.334;2023-10-31T09:03:36;97818.88;;;12.38;67.70
40155;BME280;25875;48.202;16.334;2023-10-31T09:06:03;97781.59;;;12.19;67.45
40155;BME280;25875;48.202;16.334;2023-10-31T09:08:31;97805.59;;;12.38;67.44
40155;BME280;25875;48.202;16.334;2023-10-31T09:10:59;97747.78;;;12.00;66.63
40155;BME280;25875;48.202;16.334;2023-10-31T09:13:27;97811.03;;;12.37;67.38
40155;BME280;25875;48.202;16.334;2023-10-31T09:15:55;97811.28;;;12.34;66.84
40155;BME280;25875;48.202;16.334;2023-10-31T09:18:21;97806.69;;;12.36;67.62
40155;BME280;25875;48.202;16.334;2023-10-31T09:20:49;97810.59;;;12.32;66.77
40155;BME280;25875;48.202;16.334;2023-10-31T09:23:17;97733.81;;;11.77;67.42
40155;BME280;25875;48.202;16.334;2023-10-31T09:25:44;97695.31;;;11.62;67.00
40155;BME280;25875;48.202;16.334;2023-10-31T09:28:11;97816.22;;;12.38;67.38
40155;BME280;25875;48.202;16.334;2023-10-31T09:30:38;97803.06;;;12.37;67.13
40155;BME280;25875;48.202;16.334;2023-10-31T09:33:06;97803.06;;;12.37;67.64
40155;BME280;25875;48.202;16.334;2023-10-31T09:35:33;97804.63;;;12.39;68.39
40155;BME280;25875;48.202;16.334;2023-10-31T09:38:00;97816.34;;;12.37;68.00
40155;BME280;25875;48.202;16.334;2023-10-31T09:40:27;97803.47;;;12.32;67.80
40155;BME280;25875;48.202;16.334;2023-10-31T09:42:53;97828.06;;;12.34;68.20
40155;BME280;25875;48.202;16.334;2023-10-31T09:45:20;97797.19;;;12.33;68.54
40155;BME280;25875;48.202;16.334;2023-10-31T09:47:47;97803.31;;;12.34;68.82
40155;BME280;25875;48.202;16.334;2023-10-31T09:50:15;97817.00;;;12.29;69.46
40155;BME280;25875;48.202;16.334;2023-10-31T09:52:42;97807.22;;;12.30;69.82
40155;BME280;25875;48.202;16.334;2023-10-31T09:55:09;97811.69;;;12.29;70.06
40155;BME280;25875;48.202;16.334;2023-10-31T09:57:35;97834.91;;;12.27;70.08
40155;BME280;25875;48.202;16.334;2023-10-31T10:00:02;97849.03;;;12.28;70.25
40155;BME280;25875;48.202;16.334;2023-10-31T10:02:29;97845.78;;;12.24;70.15
40155;BME280;25875;48.202;16.334;2023-10-31T10:04:56;97839.75;;;12.22;69.98
40155;BME280;25875;48.202;16.334;2023-10-31T10:07:25;97804.25;;;12.02;70.71
40155;BME280;25875;48.202;16.334;2023-10-31T10:09:52;97801.47;;;12.04;70.53
40155;BME280;25875;48.202;16.334;2023-10-31T10:12:19;97838.34;;;12.18;70.73
40155;BME280;25875;48.202;16.334;2023-10-31T10:14:45;97844.50;;;12.18;71.04
40155;BME280;25875;48.202;16.334;2023-10-31T10:17:16;97854.50;;;12.15;72.11
40155;BME280;25875;48.202;16.334;2023-10-31T10:19:43;97842.19;;;12.14;72.09
40155;BME280;25875;48.202;16.334;2023-10-31T10:22:10;97877.81;;;12.11;72.11
40155;BME280;25875;48.202;16.334;2023-10-31T10:24:41;97887.72;;;12.09;72.89
40155;BME280;25875;48.202;16.334;2023-10-31T10:27:08;97881.44;;;12.10;72.96
40155;BME280;25875;48.202;16.334;2023-10-31T10:29:35;97784.03;;;11.48;73.22
40155;BME280;25875;48.202;16.334;2023-10-31T10:32:05;97814.00;;;11.81;74.07
40155;BME280;25875;48.202;16.334;2023-10-31T10:34:35;97873.34;;;12.12;73.96
40155;BME280;25875;48.202;16.334;2023-10-31T10:37:04;97879.31;;;12.04;74.09
40155;BME280;25875;48.202;16.334;2023-10-31T10:39:33;97871.59;;;12.01;74.57
40155;BME280;25875;48.202;16.334;2023-10-31T10:42:01;97821.38;;;11.77;74.03
40155;BME280;25875;48.202;16.334;2023-10-31T10:44:34;97865.09;;;11.94;74.79
40155;BME280;25875;48.202;16.334;2023-10-31T10:47:02;97859.22;;;11.91;75.45
40155;BME280;25875;48.202;16.334;2023-10-31T10:49:33;97856.81;;;11.87;75.39
40155;BME280;25875;48.202;16.334;2023-10-31T10:52:11;97869.16;;;11.77;75.90
40155;BME280;25875;48.202;16.334;2023-10-31T10:54:44;97877.38;;;11.74;75.80
40155;BME280;25875;48.202;16.334;2023-10-31T10:57:17;97860.16;;;11.69;76.14
40155;BME280;25875;48.202;16.334;2023-10-31T10:59:48;97865.97;;;11.63;76.29
40155;BME280;25875;48.202;16.334;2023-10-31T11:02:17;97887.34;;;11.61;76.75
40155;BME280;25875;48.202;16.334;2023-10-31T11:04:44;97883.97;;;11.59;76.46
40155;BME280;25875;48.202;16.334;2023-10-31T11:07:11;97903.38;;;11.60;76.27
40155;BME280;25875;48.202;16.334;2023-10-31T11:09:39;97919.69;;;11.55;76.44
40155;BME280;25875;48.202;16.334;2023-10-31T11:12:10;97904.03;;;11.41;76.31
40155;BME280;25875;48.202;16.334;2023-10-31T11:14:39;97915.50;;;11.41;76.39
40155;BME280;25875;48.202;16.334;2023-10-31T11:17:13;97955.00;;;11.55;76.91
40155;BME280;25875;48.202;16.334;2023-10-31T11:19:43;97824.28;;;10.56;76.57
40155;BME280;25875;48.202;16.334;2023-10-31T11:22:10;98011.94;;;11.51;76.70
40155;BME280;25875;48.202;16.334;2023-10-31T11:24:37;98057.78;;;11.53;76.43
40155;BME280;25875;48.202;16.334;2023-10-31T11:27:07;98055.59;;;11.47;76.82
40155;BME280;25875;48.202;16.334;2023-10-31T11:29:39;98000.03;;;10.79;77.17
40155;BME280;25875;48.202;16.334;2023-10-31T11:32:08;98086.84;;;11.44;77.12
40155;BME280;25875;48.202;16.334;2023-10-31T11:34:38;98087.31;;;11.49;76.86
40155;BME280;25875;48.202;16.334;2023-10-31T11:37:31;98083.94;;;11.36;77.17
40155;BME280;25875;48.202;16.334;2023-10-31T11:40:19;98082.50;;;11.43;76.98
40155;BME280;25875;48.202;16.334;2023-10-31T11:42:48;98055.50;;;11.38;77.27
40155;BME280;25875;48.202;16.334;2023-10-31T11:45:34;98007.88;;;11.25;77.49
40155;BME280;25875;48.202;16.334;2023-10-31T11:48:01;98002.56;;;11.25;78.14
40155;BME280;25875;48.202;16.334;2023-10-31T11:50:30;97987.13;;;11.30;77.82
40155;BME280;25875;48.202;16.334;2023-10-31T11:53:04;97887.97;;;10.77;78.56
40155;BME280;25875;48.202;16.334;2023-10-31T11:55:33;97951.84;;;11.07;78.60
40155;BME280;25875;48.202;16.334;2023-10-31T11:58:16;97910.41;;;10.84;78.22
40155;BME280;25875;48.202;16.334;2023-10-31T12:00:45;97981.84;;;11.19;78.17
40155;BME280;25875;48.202;16.334;2023-10-31T12:03:12;97922.94;;;10.82;77.56
40155;BME280;25875;48.202;16.334;2023-10-31T12:05:40;98017.28;;;11.29;77.05
40155;BME280;25875;48.202;16.334;2023-10-31T12:08:24;98034.88;;;11.30;77.16
40155;BME280;25875;48.202;16.334;2023-10-31T12:10:51;98025.34;;;11.28;77.52
40155;BME280;25875;48.202;16.334;2023-10-31T12:13:17;97926.19;;;10.85;77.26
40155;BME280;25875;48.202;16.334;2023-10-31T12:15:53;97961.97;;;11.13;77.83
40155;BME280;25875;48.202;16.334;2023-10-31T12:18:19;97957.38;;;11.15;77.55
40155;BME280;25875;48.202;16.334;2023-10-31T12:20:47;97961.72;;;11.16;77.88
40155;BME280;25875;48.202;16.334;2023-10-31T12:23:15;97959.78;;;11.07;78.01
40155;BME280;25875;48.202;16.334;2023-10-31T12:25:46;97945.81;;;11.05;78.04
40155;BME280;25875;48.202;16.334;2023-10-31T12:28:16;97949.78;;;11.11;77.36
40155;BME280;25875;48.202;16.334;2023-10-31T12:30:44;97950.88;;;11.08;77.82
40155;BME280;25875;48.202;16.334;2023-10-31T12:33:13;97956.28;;;11.07;78.04
40155;BME280;25875;48.202;16.334;2023-10-31T12:35:41;97954.00;;;11.02;77.50
40155;BME280;25875;48.202;16.334;2023-10-31T12:38:10;97923.63;;;11.06;77.73
40155;BME280;25875;48.202;16.334;2023-10-31T12:40:37;97912.19;;;10.95;78.15
40155;BME280;25875;48.202;16.334;2023-10-31T12:43:04;97738.72;;;10.11;77.72
40155;BME280;25875;48.202;16.334;2023-10-31T12:45:32;97874.50;;;10.91;78.72
40155;BME280;25875;48.202;16.334;2023-10-31T12:48:02;97866.41;;;10.93;78.59
40155;BME280;25875;48.202;16.334;2023-10-31T12:50:31;97864.88;;;10.79;79.36
40155;BME280;25875;48.202;16.334;2023-10-31T12:52:58;97891.09;;;10.71;79.86